createdAt,value
2018-06-21T00:00:55.371Z,57.67
2018-06-21T00:01:55.374Z,57.47
2018-06-21T00:02:55.357Z,57.75
2018-06-21T00:03:55.342Z,57.47
2018-06-21T00:04:55.331Z,57.67
2018-06-21T00:05:55.308Z,57.47
2018-06-21T00:06:55.337Z,57.77
2018-06-21T00:07:55.303Z,57.67
2018-06-21T00:08:55.294Z,57.75
2018-06-21T00:09:55.286Z,57.47
2018-06-21T00:10:55.255Z,57.45
2018-06-21T00:11:55.272Z,57.77
2018-06-21T00:12:55.234Z,57.57
2018-06-21T00:13:55.219Z,57.67
2018-06-21T00:14:55.216Z,57.47
2018-06-21T00:15:55.203Z,57.67
2018-06-21T00:16:55.190Z,57.64
2018-06-21T00:17:55.202Z,57.64
2018-06-21T00:18:55.238Z,57.35
2018-06-21T00:19:55.157Z,57.37
2018-06-21T00:20:55.148Z,57.47
2018-06-21T00:21:55.140Z,57.57
2018-06-21T00:22:55.142Z,57.57
2018-06-21T00:23:55.112Z,57.77
2018-06-21T00:24:55.100Z,57.77
2018-06-21T00:25:55.088Z,57.77
2018-06-21T00:26:55.087Z,57.64
2018-06-21T00:27:55.111Z,57.67
2018-06-21T00:28:55.097Z,57.47
2018-06-21T00:29:55.049Z,57.54
2018-06-21T00:30:55.054Z,57.57
2018-06-21T00:31:55.024Z,57.57
2018-06-21T00:32:55.012Z,57.67
2018-06-21T00:33:55.000Z,57.47
2018-06-21T00:34:54.996Z,57.57
2018-06-21T00:35:55.034Z,57.47
2018-06-21T00:36:54.971Z,57.47
2018-06-21T00:37:55.086Z,57.67
2018-06-21T00:38:54.947Z,57.97
2018-06-21T00:39:55.015Z,57.47
2018-06-21T00:40:54.923Z,57.57
2018-06-21T00:41:54.962Z,57.64
2018-06-21T00:42:55.045Z,57.75
2018-06-21T00:43:54.887Z,57.07
2018-06-21T00:44:54.891Z,57.64
2018-06-21T00:45:54.868Z,57.47
2018-06-21T00:46:54.863Z,57.87
2018-06-21T00:47:54.870Z,57.67
2018-06-21T00:48:54.834Z,57.67
2018-06-21T00:49:54.823Z,57.47
2018-06-21T00:50:54.804Z,57.67
2018-06-21T00:51:54.795Z,57.67
2018-06-21T00:52:54.787Z,57.64
2018-06-21T00:53:54.794Z,57.47
2018-06-21T00:54:54.759Z,57.64
2018-06-21T00:55:54.772Z,57.47
2018-06-21T00:56:54.737Z,57.67
2018-06-21T00:57:54.725Z,57.67
2018-06-21T00:58:54.739Z,57.67
2018-06-21T00:59:54.714Z,57.37
2018-06-21T01:00:54.698Z,57.67
2018-06-21T01:01:54.685Z,57.64
2018-06-21T01:02:54.671Z,57.57
2018-06-21T01:03:54.661Z,57.57
2018-06-21T01:04:54.651Z,57.57
2018-06-21T01:05:54.635Z,57.57
2018-06-21T01:06:54.631Z,57.57
2018-06-21T01:07:54.613Z,57.77
2018-06-21T01:08:54.940Z,57.47
2018-06-21T01:09:54.599Z,57.77
2018-06-21T01:10:54.589Z,57.64
2018-06-21T01:11:54.573Z,57.54
2018-06-21T01:12:54.557Z,57.77
2018-06-21T01:13:54.550Z,57.67
2018-06-21T01:14:54.534Z,57.47
2018-06-21T01:15:54.523Z,57.57
2018-06-21T01:16:54.511Z,57.87
2018-06-21T01:17:54.503Z,57.64
2018-06-21T01:18:54.509Z,57.77
2018-06-21T01:19:54.509Z,57.67
2018-06-21T01:20:54.471Z,57.67
2018-06-21T01:21:54.464Z,57.77
2018-06-21T01:22:54.439Z,57.67
2018-06-21T01:23:54.477Z,57.64
2018-06-21T01:24:54.423Z,57.67
2018-06-21T01:25:54.414Z,57.67
2018-06-21T01:26:54.463Z,57.67
2018-06-21T01:27:54.385Z,57.67
2018-06-21T01:28:54.378Z,57.67
2018-06-21T01:29:54.387Z,56.87
2018-06-21T01:30:54.360Z,57.47
2018-06-21T01:31:54.344Z,57.67
2018-06-21T01:32:54.336Z,57.67
2018-06-21T01:33:54.324Z,57.67
2018-06-21T01:34:54.330Z,57.57
2018-06-21T01:35:54.297Z,57.57
2018-06-21T01:36:54.283Z,57.67
2018-06-21T01:37:54.272Z,57.67
2018-06-21T01:38:54.272Z,57.67
2018-06-21T01:39:54.291Z,57.67
2018-06-21T01:40:54.258Z,57.64
2018-06-21T01:41:54.252Z,57.67
2018-06-21T01:42:54.247Z,57.67
2018-06-21T01:43:54.237Z,57.67
2018-06-21T01:44:54.222Z,56.87
2018-06-21T01:45:54.204Z,57.77
2018-06-21T01:46:54.193Z,57.77
2018-06-21T01:47:54.176Z,57.57
2018-06-21T01:48:54.161Z,57.77
2018-06-21T01:49:54.135Z,57.87
2018-06-21T01:50:54.131Z,57.67
2018-06-21T01:51:54.124Z,57.67
2018-06-21T01:52:54.105Z,57.67
2018-06-21T01:53:54.104Z,57.87
2018-06-21T01:54:54.084Z,57.87
2018-06-21T01:55:54.099Z,57.67
2018-06-21T01:56:54.058Z,57.67
2018-06-21T01:57:54.051Z,57.67
2018-06-21T01:58:54.034Z,57.77
2018-06-21T01:59:54.031Z,57.57
2018-06-21T02:00:54.033Z,57.77
2018-06-21T02:01:53.997Z,57.67
2018-06-21T02:02:53.997Z,57.47
2018-06-21T02:03:53.983Z,57.67
2018-06-21T02:04:53.965Z,57.67
2018-06-21T02:05:53.975Z,57.77
2018-06-21T02:06:53.949Z,57.67
2018-06-21T02:07:53.937Z,57.67
2018-06-21T02:08:53.922Z,57.57
2018-06-21T02:09:53.913Z,57.77
2018-06-21T02:10:53.915Z,57.28
2018-06-21T02:11:53.886Z,57.87
2018-06-21T02:12:53.876Z,57.67
2018-06-21T02:13:53.867Z,57.67
2018-06-21T02:14:53.849Z,57.67
2018-06-21T02:15:53.868Z,57.77
2018-06-21T02:16:53.831Z,57.57
2018-06-21T02:17:53.818Z,57.77
2018-06-21T02:18:53.810Z,57.57
2018-06-21T02:19:53.800Z,57.57
2018-06-21T02:20:53.790Z,57.77
2018-06-21T02:21:53.782Z,57.47
2018-06-21T02:22:53.759Z,57.67
2018-06-21T02:23:53.754Z,57.67
2018-06-21T02:24:53.739Z,57.54
2018-06-21T02:25:53.724Z,57.47
2018-06-21T02:26:53.723Z,57.75
2018-06-21T02:27:53.707Z,57.24
2018-06-21T02:28:53.693Z,57.35
2018-06-21T02:29:53.680Z,57.05
2018-06-21T02:30:53.674Z,57.57
2018-06-21T02:31:53.699Z,57.67
2018-06-21T02:32:53.655Z,57.47
2018-06-21T02:33:53.640Z,57.67
2018-06-21T02:34:53.629Z,57.47
2018-06-21T02:35:53.617Z,57.77
2018-06-21T02:36:53.629Z,57.87
2018-06-21T02:37:53.592Z,57.77
2018-06-21T02:38:53.594Z,57.77
2018-06-21T02:39:53.573Z,57.57
2018-06-21T02:40:53.562Z,57.47
2018-06-21T02:41:53.555Z,57.87
2018-06-21T02:42:53.536Z,57.67
2018-06-21T02:43:53.525Z,57.87
2018-06-21T02:44:53.516Z,57.77
2018-06-21T02:45:53.507Z,57.57
2018-06-21T02:46:53.486Z,57.77
2018-06-21T02:47:53.486Z,57.67
2018-06-21T02:48:53.468Z,57.57
2018-06-21T02:49:53.455Z,57.67
2018-06-21T02:50:53.501Z,57.87
2018-06-21T02:51:53.436Z,57.57
2018-06-21T02:52:53.429Z,57.77
2018-06-21T02:53:53.416Z,57.47
2018-06-21T02:54:53.398Z,57.67
2018-06-21T02:55:53.391Z,57.67
2018-06-21T02:56:53.377Z,57.67
2018-06-21T02:57:53.395Z,57.67
2018-06-21T02:58:53.361Z,57.57
2018-06-21T02:59:53.393Z,57.67
2018-06-21T03:00:53.337Z,57.87
2018-06-21T03:01:53.387Z,57.57
2018-06-21T03:02:53.345Z,57.47
2018-06-21T03:03:53.362Z,57.87
2018-06-21T03:04:53.291Z,57.47
2018-06-21T03:05:53.331Z,57.87
2018-06-21T03:06:53.265Z,57.67
2018-06-21T03:07:53.263Z,57.77
2018-06-21T03:08:53.250Z,57.67
2018-06-21T03:09:53.234Z,57.67
2018-06-21T03:10:53.228Z,57.77
2018-06-21T03:11:53.216Z,57.67
2018-06-21T03:12:53.202Z,57.57
2018-06-21T03:13:53.196Z,57.47
2018-06-21T03:14:53.177Z,57.47
2018-06-21T03:15:53.252Z,57.57
2018-06-21T03:16:53.236Z,57.77
2018-06-21T03:17:53.239Z,57.67
2018-06-21T03:18:53.157Z,57.47
2018-06-21T03:19:53.123Z,57.87
2018-06-21T03:20:53.112Z,57.87
2018-06-21T03:21:53.098Z,57.57
2018-06-21T03:22:53.163Z,57.67
2018-06-21T03:23:53.079Z,57.67
2018-06-21T03:24:53.082Z,57.87
2018-06-21T03:25:53.116Z,57.77
2018-06-21T03:26:53.117Z,57.47
2018-06-21T03:27:53.125Z,57.87
2018-06-21T03:28:53.022Z,57.77
2018-06-21T03:29:53.012Z,57.57
2018-06-21T03:30:53.006Z,57.77
2018-06-21T03:31:52.996Z,57.67
2018-06-21T03:32:52.974Z,57.77
2018-06-21T03:33:52.960Z,57.67
2018-06-21T03:34:52.984Z,57.67
2018-06-21T03:35:52.949Z,57.67
2018-06-21T03:36:52.937Z,57.47
2018-06-21T03:37:52.928Z,57.47
2018-06-21T03:38:52.905Z,57.67
2018-06-21T03:39:52.898Z,57.64
2018-06-21T03:40:52.887Z,57.67
2018-06-21T03:41:52.870Z,57.47
2018-06-21T03:42:52.865Z,57.77
2018-06-21T03:43:52.856Z,57.77
2018-06-21T03:44:52.843Z,57.37
2018-06-21T03:45:52.835Z,57.28
2018-06-21T03:46:52.819Z,57.67
2018-06-21T03:47:52.807Z,57.47
2018-06-21T03:48:52.796Z,57.67
2018-06-21T03:49:52.791Z,57.47
2018-06-21T03:50:52.797Z,57.87
2018-06-21T03:51:52.761Z,57.77
2018-06-21T03:52:52.752Z,57.67
2018-06-21T03:53:52.736Z,57.87
2018-06-21T03:54:52.733Z,57.87
2018-06-21T03:55:52.720Z,57.47
2018-06-21T03:56:52.710Z,57.87
2018-06-21T03:57:52.710Z,57.87
2018-06-21T03:58:52.683Z,57.87
2018-06-21T03:59:52.674Z,57.47
2018-06-21T04:00:52.663Z,57.67
2018-06-21T04:01:52.653Z,57.87
2018-06-21T04:02:52.645Z,57.67
2018-06-21T04:03:52.631Z,57.57
2018-06-21T04:04:52.618Z,57.47
2018-06-21T04:05:52.605Z,57.77
2018-06-21T04:06:52.604Z,57.28
2018-06-21T04:07:52.587Z,57.77
2018-06-21T04:08:52.579Z,57.77
2018-06-21T04:09:52.566Z,57.37
2018-06-21T04:10:52.549Z,57.47
2018-06-21T04:11:52.559Z,57.67
2018-06-21T04:12:52.527Z,57.77
2018-06-21T04:13:52.518Z,57.87
2018-06-21T04:14:52.509Z,57.67
2018-06-21T04:15:52.496Z,57.77
2018-06-21T04:16:52.502Z,57.47
2018-06-21T04:17:52.476Z,57.57
2018-06-21T04:18:52.456Z,57.47
2018-06-21T04:19:52.450Z,57.47
2018-06-21T04:20:52.438Z,57.47
2018-06-21T04:21:52.449Z,57.67
2018-06-21T04:22:52.413Z,57.77
2018-06-21T04:23:52.401Z,57.77
2018-06-21T04:24:52.391Z,57.67
2018-06-21T04:25:52.377Z,57.28
2018-06-21T04:26:52.393Z,57.77
2018-06-21T04:27:52.365Z,57.77
2018-06-21T04:28:52.348Z,57.87
2018-06-21T04:29:52.344Z,57.47
2018-06-21T04:30:52.320Z,57.47
2018-06-21T04:31:52.344Z,57.47
2018-06-21T04:32:52.301Z,57.57
2018-06-21T04:33:52.285Z,57.57
2018-06-21T04:34:52.281Z,57.87
2018-06-21T04:35:52.271Z,57.67
2018-06-21T04:36:52.256Z,57.57
2018-06-21T04:37:52.249Z,57.28
2018-06-21T04:38:52.239Z,57.47
2018-06-21T04:39:52.223Z,57.67
2018-06-21T04:40:52.210Z,57.67
2018-06-21T04:41:52.201Z,57.77
2018-06-21T04:42:52.187Z,57.77
2018-06-21T04:43:52.173Z,57.67
2018-06-21T04:44:52.162Z,57.67
2018-06-21T04:45:52.215Z,57.67
2018-06-21T04:46:52.144Z,57.67
2018-06-21T04:47:52.133Z,57.37
2018-06-21T04:48:52.119Z,57.24
2018-06-21T04:49:52.109Z,57.35
2018-06-21T04:50:52.092Z,57.28
2018-06-21T04:51:52.082Z,57.84
2018-06-21T04:52:52.093Z,57.77
2018-06-21T04:53:52.062Z,57.67
2018-06-21T04:54:52.047Z,57.77
2018-06-21T04:55:52.037Z,57.47
2018-06-21T04:56:52.024Z,57.47
2018-06-21T04:57:52.032Z,57.57
2018-06-21T04:58:52.006Z,57.47
2018-06-21T04:59:51.993Z,57.57
2018-06-21T05:00:51.982Z,57.47
2018-06-21T05:01:51.972Z,57.57
2018-06-21T05:02:51.982Z,57.77
2018-06-21T05:03:51.944Z,57.87
2018-06-21T05:04:51.933Z,57.77
2018-06-21T05:05:51.922Z,57.67
2018-06-21T05:06:51.915Z,57.77
2018-06-21T05:07:51.901Z,57.67
2018-06-21T05:08:51.889Z,57.67
2018-06-21T05:09:51.886Z,57.67
2018-06-21T05:10:51.870Z,57.47
2018-06-21T05:11:51.856Z,57.67
2018-06-21T05:12:51.847Z,57.87
2018-06-21T05:13:51.863Z,57.67
2018-06-21T05:14:51.821Z,57.87
2018-06-21T05:15:51.811Z,57.28
2018-06-21T05:16:51.800Z,57.47
2018-06-21T05:17:51.785Z,57.87
2018-06-21T05:18:51.783Z,57.57
2018-06-21T05:19:51.769Z,57.57
2018-06-21T05:20:51.757Z,57.47
2018-06-21T05:21:51.749Z,57.67
2018-06-21T05:22:51.732Z,57.57
2018-06-21T05:23:51.723Z,57.57
2018-06-21T05:24:51.718Z,57.67
2018-06-21T05:25:51.703Z,57.57
2018-06-21T05:26:51.672Z,57.47
2018-06-21T05:27:51.663Z,57.47
2018-06-21T05:28:51.670Z,57.57
2018-06-21T05:29:51.639Z,57.57
2018-06-21T05:30:51.635Z,57.77
2018-06-21T05:31:51.621Z,57.47
2018-06-21T05:32:51.610Z,57.77
2018-06-21T05:33:51.637Z,57.67
2018-06-21T05:34:51.583Z,57.67
2018-06-21T05:35:51.576Z,57.57
2018-06-21T05:36:51.562Z,57.87
2018-06-21T05:37:51.551Z,57.37
2018-06-21T05:38:51.545Z,57.77
2018-06-21T05:39:51.549Z,57.87
2018-06-21T05:40:51.522Z,57.67
2018-06-21T05:41:51.504Z,57.87
2018-06-21T05:42:51.498Z,57.77
2018-06-21T05:43:51.485Z,57.67
2018-06-21T05:44:51.505Z,57.67
2018-06-21T05:45:51.467Z,57.77
2018-06-21T05:46:51.451Z,57.67
2018-06-21T05:47:51.444Z,57.67
2018-06-21T05:48:51.435Z,57.67
2018-06-21T05:49:51.420Z,57.67
2018-06-21T05:50:51.435Z,57.67
2018-06-21T05:51:51.402Z,57.57
2018-06-21T05:52:51.393Z,57.67
2018-06-21T05:53:51.403Z,57.77
2018-06-21T05:54:51.364Z,57.67
2018-06-21T05:55:51.375Z,57.87
2018-06-21T05:56:51.348Z,57.87
2018-06-21T05:57:51.338Z,57.67
2018-06-21T05:58:51.321Z,57.57
2018-06-21T05:59:51.313Z,57.87
2018-06-21T06:00:51.317Z,57.87
2018-06-21T06:01:51.312Z,57.77
2018-06-21T06:02:51.282Z,57.47
2018-06-21T06:03:51.271Z,57.57
2018-06-21T06:04:51.260Z,57.57
2018-06-21T06:05:51.278Z,57.57
2018-06-21T06:06:51.233Z,57.67
2018-06-21T06:07:51.225Z,57.57
2018-06-21T06:08:51.214Z,57.67
2018-06-21T06:09:51.205Z,57.67
2018-06-21T06:10:51.195Z,57.67
2018-06-21T06:11:51.202Z,57.47
2018-06-21T06:12:51.169Z,57.75
2018-06-21T06:13:51.155Z,57.67
2018-06-21T06:14:51.159Z,57.67
2018-06-21T06:15:51.138Z,57.64
2018-06-21T06:16:51.172Z,57.75
2018-06-21T06:17:51.116Z,57.37
2018-06-21T06:18:51.098Z,57.57
2018-06-21T06:19:51.091Z,57.57
2018-06-21T06:20:51.081Z,57.47
2018-06-21T06:21:51.071Z,57.28
2018-06-21T06:22:51.079Z,57.47
2018-06-21T06:23:51.054Z,57.67
2018-06-21T06:24:51.036Z,57.67
2018-06-21T06:25:51.025Z,57.67
2018-06-21T06:26:51.010Z,57.67
2018-06-21T06:27:51.024Z,57.67
2018-06-21T06:28:50.992Z,57.67
2018-06-21T06:29:50.979Z,57.67
2018-06-21T06:30:50.966Z,56.87
2018-06-21T06:31:50.950Z,57.57
2018-06-21T06:32:50.943Z,57.47
2018-06-21T06:33:50.949Z,57.67
2018-06-21T06:34:50.923Z,57.67
2018-06-21T06:35:50.914Z,57.47
2018-06-21T06:36:50.902Z,57.45
2018-06-21T06:37:50.892Z,57.57
2018-06-21T06:38:50.908Z,57.47
2018-06-21T06:39:50.864Z,57.57
2018-06-21T06:40:50.852Z,57.67
2018-06-21T06:41:50.844Z,57.67
2018-06-21T06:42:50.876Z,57.77
2018-06-21T06:43:50.828Z,57.67
2018-06-21T06:44:50.826Z,57.67
2018-06-21T06:45:50.798Z,57.57
2018-06-21T06:46:50.790Z,57.67
2018-06-21T06:47:50.779Z,57.67
2018-06-21T06:48:50.769Z,57.57
2018-06-21T06:49:50.776Z,57.67
2018-06-21T06:50:50.744Z,57.77
2018-06-21T06:51:50.729Z,57.67
2018-06-21T06:52:50.716Z,57.77
2018-06-21T06:53:50.708Z,57.67
2018-06-21T06:54:50.782Z,57.57
2018-06-21T06:55:50.691Z,57.47
2018-06-21T06:56:50.684Z,57.67
2018-06-21T06:57:50.662Z,57.67
2018-06-21T06:58:50.652Z,57.67
2018-06-21T06:59:50.655Z,57.67
2018-06-21T07:00:50.634Z,57.77
2018-06-21T07:01:50.619Z,57.47
2018-06-21T07:02:50.606Z,57.67
2018-06-21T07:03:50.590Z,57.77
2018-06-21T07:04:50.599Z,57.67
2018-06-21T07:05:50.570Z,57.67
2018-06-21T07:06:50.561Z,57.67
2018-06-21T07:07:50.552Z,57.57
2018-06-21T07:08:50.539Z,57.47
2018-06-21T07:09:50.548Z,57.67
2018-06-21T07:10:50.512Z,57.67
2018-06-21T07:11:50.498Z,57.67
2018-06-21T07:12:50.487Z,57.77
2018-06-21T07:13:50.482Z,57.67
2018-06-21T07:14:50.496Z,57.87
2018-06-21T07:15:50.461Z,57.64
2018-06-21T07:16:50.443Z,57.67
2018-06-21T07:17:50.435Z,57.67
2018-06-21T07:18:50.425Z,57.77
2018-06-21T07:19:50.413Z,57.77
2018-06-21T07:20:50.422Z,57.67
2018-06-21T07:21:50.393Z,57.67
2018-06-21T07:22:50.378Z,57.67
2018-06-21T07:23:50.363Z,57.87
2018-06-21T07:24:50.354Z,57.45
2018-06-21T07:25:50.363Z,57.28
2018-06-21T07:26:50.336Z,57.84
2018-06-21T07:27:50.326Z,57.87
2018-06-21T07:28:50.317Z,57.57
2018-06-21T07:29:50.328Z,57.47
2018-06-21T07:30:50.317Z,57.67
2018-06-21T07:31:50.274Z,57.67
2018-06-21T07:32:50.269Z,57.67
2018-06-21T07:33:50.255Z,57.77
2018-06-21T07:34:50.247Z,57.57
2018-06-21T07:35:50.228Z,57.67
2018-06-21T07:36:50.235Z,57.67
2018-06-21T07:37:50.208Z,57.57
2018-06-21T07:38:50.246Z,57.77
2018-06-21T07:39:50.194Z,57.67
2018-06-21T07:40:50.179Z,57.67
2018-06-21T07:41:50.184Z,57.57
2018-06-21T07:42:50.153Z,57.67
2018-06-21T07:43:50.150Z,57.67
2018-06-21T07:44:50.128Z,57.67
2018-06-21T07:45:50.121Z,57.57
2018-06-21T07:46:50.160Z,57.67
2018-06-21T07:47:50.101Z,57.67
2018-06-21T07:48:50.083Z,57.67
2018-06-21T07:49:50.074Z,57.67
2018-06-21T07:50:50.066Z,57.67
2018-06-21T07:51:50.076Z,57.77
2018-06-21T07:52:50.045Z,57.77
2018-06-21T07:53:50.046Z,57.77
2018-06-21T07:54:50.019Z,57.77
2018-06-21T07:55:50.008Z,57.77
2018-06-21T07:56:50.014Z,57.57
2018-06-21T07:57:49.986Z,57.47
2018-06-21T07:58:49.979Z,57.47
2018-06-21T07:59:49.971Z,57.67
2018-06-21T08:00:49.959Z,57.77
2018-06-21T08:01:49.968Z,57.77
2018-06-21T08:02:49.933Z,57.77
2018-06-21T08:03:49.921Z,57.05
2018-06-21T08:04:49.926Z,57.37
2018-06-21T08:05:49.905Z,57.77
2018-06-21T08:06:49.918Z,57.67
2018-06-21T08:07:49.880Z,57.57
2018-06-21T08:08:49.865Z,57.64
2018-06-21T08:09:49.855Z,57.45
2018-06-21T08:10:49.848Z,57.54
2018-06-21T08:11:49.845Z,57.67
2018-06-21T08:12:49.881Z,57.77
2018-06-21T08:13:49.813Z,57.57
2018-06-21T08:14:49.798Z,57.47
2018-06-21T08:15:49.791Z,57.47
2018-06-21T08:16:49.775Z,57.67
2018-06-21T08:17:49.787Z,57.77
2018-06-21T08:18:49.765Z,57.77
2018-06-21T08:19:49.767Z,57.77
2018-06-21T08:20:49.738Z,57.77
2018-06-21T08:21:49.721Z,57.67
2018-06-21T08:22:49.733Z,57.67
2018-06-21T08:23:49.702Z,57.67
2018-06-21T08:24:49.693Z,57.47
2018-06-21T08:25:49.678Z,57.47
2018-06-21T08:26:49.691Z,57.64
2018-06-21T08:27:49.683Z,57.67
2018-06-21T08:28:49.642Z,57.67
2018-06-21T08:29:49.632Z,57.45
2018-06-21T08:30:49.636Z,57.64
2018-06-21T08:31:49.614Z,57.67
2018-06-21T08:32:49.631Z,57.45
2018-06-21T08:33:49.592Z,57.64
2018-06-21T08:34:49.581Z,57.67
2018-06-21T08:35:49.563Z,57.67
2018-06-21T08:36:49.561Z,57.45
2018-06-21T08:37:49.548Z,57.47
2018-06-21T08:38:49.561Z,57.77
2018-06-21T08:39:49.526Z,57.64
2018-06-21T08:40:49.512Z,57.57
2018-06-21T08:41:49.501Z,57.87
2018-06-21T08:42:49.492Z,57.67
2018-06-21T08:43:49.522Z,57.47
2018-06-21T08:44:49.490Z,57.77
2018-06-21T08:45:49.524Z,57.77
2018-06-21T08:46:49.446Z,57.87
2018-06-21T08:47:49.434Z,57.75
2018-06-21T08:48:49.440Z,57.77
2018-06-21T08:49:49.411Z,57.57
2018-06-21T08:50:49.401Z,57.35
2018-06-21T08:51:49.393Z,57.77
2018-06-21T08:52:49.379Z,57.47
2018-06-21T08:53:49.386Z,57.67
2018-06-21T08:54:49.357Z,57.67
2018-06-21T08:55:49.347Z,57.64
2018-06-21T08:56:49.337Z,57.77
2018-06-21T08:57:49.322Z,57.77
2018-06-21T08:58:49.329Z,57.28
2018-06-21T08:59:49.308Z,57.87
2018-06-21T09:00:49.288Z,57.47
2018-06-21T09:01:49.279Z,57.67
2018-06-21T09:02:49.270Z,57.84
2018-06-21T09:03:49.341Z,57.77
2018-06-21T09:04:49.249Z,57.87
2018-06-21T09:05:49.235Z,57.57
2018-06-21T09:06:49.223Z,57.87
2018-06-21T09:07:49.207Z,57.47
2018-06-21T09:08:49.230Z,57.87
2018-06-21T09:09:49.189Z,57.77
2018-06-21T09:10:49.179Z,57.77
2018-06-21T09:11:49.171Z,57.75
2018-06-21T09:12:49.152Z,57.64
2018-06-21T09:13:49.145Z,58.07
2018-06-21T09:14:49.153Z,57.77
2018-06-21T09:15:49.236Z,58.37
2018-06-21T09:16:49.117Z,61.66
2018-06-21T09:17:49.101Z,62.05
2018-06-21T09:18:49.087Z,62.05
2018-06-21T09:19:49.096Z,62.26
2018-06-21T09:20:49.063Z,61.96
2018-06-21T09:21:49.055Z,61.66
2018-06-21T09:22:49.046Z,61.55
2018-06-21T09:23:49.035Z,61.66
2018-06-21T09:24:49.034Z,61.36
2018-06-21T09:25:49.009Z,60.86
2018-06-21T09:26:48.999Z,61.16
2018-06-21T09:27:48.991Z,61.06
2018-06-21T09:28:48.984Z,60.76
2018-06-21T09:29:48.986Z,60.76
2018-06-21T09:30:48.952Z,60.36
2018-06-21T09:31:48.938Z,60.53
2018-06-21T09:32:48.930Z,60.13
2018-06-21T09:33:48.919Z,60.76
2018-06-21T09:34:48.941Z,60.53
2018-06-21T09:35:48.904Z,60.16
2018-06-21T09:36:48.895Z,59.86
2018-06-21T09:37:48.881Z,60.03
2018-06-21T09:38:48.866Z,60.53
2018-06-21T09:39:48.856Z,60.13
2018-06-21T09:40:48.879Z,60.13
2018-06-21T09:41:48.836Z,60.13
2018-06-21T09:42:48.822Z,59.74
2018-06-21T09:44:03.408Z,59.64
2018-06-21T09:44:49.801Z,59.83
2018-06-21T09:45:48.791Z,60.11
2018-06-21T09:46:48.800Z,59.83
2018-06-21T09:47:48.773Z,60.13
2018-06-21T09:48:48.763Z,60.24
2018-06-21T09:49:48.750Z,59.94
2018-06-21T09:50:48.737Z,59.83
2018-06-21T09:51:48.748Z,59.83
2018-06-21T09:52:48.711Z,60.24
2018-06-21T09:53:48.702Z,59.23
2018-06-21T09:54:48.693Z,59.81
2018-06-21T09:55:48.684Z,59.70
2018-06-21T09:56:48.678Z,59.41
2018-06-21T09:57:48.782Z,59.21
2018-06-21T09:58:48.649Z,59.91
2018-06-21T09:59:48.639Z,59.61
2018-06-21T10:00:48.627Z,59.21
2018-06-21T10:01:48.615Z,59.41
2018-06-21T10:02:48.619Z,59.21
2018-06-21T10:03:48.590Z,59.41
2018-06-21T10:04:48.574Z,59.51
2018-06-21T10:05:48.570Z,59.61
2018-06-21T10:06:48.561Z,59.21
2018-06-21T10:07:48.577Z,59.51
2018-06-21T10:08:48.539Z,59.51
2018-06-21T10:09:48.523Z,59.41
2018-06-21T10:10:48.508Z,59.51
2018-06-21T10:11:48.495Z,59.31
2018-06-21T10:12:48.492Z,59.41
2018-06-21T10:13:48.494Z,59.11
2018-06-21T10:14:48.509Z,59.01
2018-06-21T10:15:48.561Z,58.91
2018-06-21T10:16:48.472Z,59.01
2018-06-21T10:17:48.453Z,59.01
2018-06-21T10:18:48.492Z,58.81
2018-06-21T10:19:48.555Z,58.71
2018-06-21T10:20:48.432Z,58.71
2018-06-21T10:21:48.427Z,58.91
2018-06-21T10:22:48.410Z,58.61
2018-06-21T10:23:48.392Z,58.98
2018-06-21T10:24:48.424Z,58.81
2018-06-21T10:25:48.372Z,58.81
2018-06-21T10:26:48.328Z,58.71
2018-06-21T10:27:48.320Z,58.78
2018-06-21T10:28:48.300Z,58.69
2018-06-21T10:29:48.319Z,58.91
2018-06-21T10:30:48.285Z,58.58
2018-06-21T10:31:48.280Z,59.01
2018-06-21T10:32:48.264Z,59.41
2018-06-21T10:33:48.248Z,60.30
2018-06-21T10:34:48.235Z,61.10
2018-06-21T10:35:48.249Z,61.10
2018-06-21T10:36:48.213Z,61.90
2018-06-21T10:37:48.200Z,61.50
2018-06-21T10:38:48.193Z,61.80
2018-06-21T10:39:48.180Z,62.10
2018-06-21T10:40:48.169Z,62.40
2018-06-21T10:41:48.178Z,62.42
2018-06-21T10:42:48.140Z,62.79
2018-06-21T10:43:48.132Z,63.22
2018-06-21T10:44:48.123Z,63.39
2018-06-21T10:45:48.113Z,63.39
2018-06-21T10:46:48.113Z,63.62
2018-06-21T10:47:48.085Z,63.62
2018-06-21T10:48:48.074Z,63.52
2018-06-21T10:49:48.070Z,63.72
2018-06-21T10:50:48.060Z,64.01
2018-06-21T10:51:48.074Z,64.01
2018-06-21T10:52:48.031Z,64.42
2018-06-21T10:53:48.025Z,64.61
2018-06-21T10:54:48.004Z,64.88
2018-06-21T10:55:47.996Z,64.39
2018-06-21T10:56:47.985Z,64.61
2018-06-21T10:57:47.988Z,65.38
2018-06-21T10:58:47.965Z,65.21
2018-06-21T10:59:47.952Z,64.98
2018-06-21T11:00:47.937Z,65.31
2018-06-21T11:01:47.924Z,66.01
2018-06-21T11:02:47.947Z,66.01
2018-06-21T11:03:47.907Z,66.01
2018-06-21T11:04:47.895Z,65.61
2018-06-21T11:05:47.888Z,66.41
2018-06-21T11:06:47.872Z,65.91
2018-06-21T11:07:47.858Z,66.01
2018-06-21T11:08:47.865Z,66.01
2018-06-21T11:09:47.832Z,66.11
2018-06-21T11:10:47.831Z,65.81
2018-06-21T11:11:47.815Z,66.01
2018-06-21T11:12:47.804Z,66.01
2018-06-21T11:13:47.813Z,67.00
2018-06-21T11:14:47.792Z,65.91
2018-06-21T11:15:47.769Z,66.01
2018-06-21T11:16:47.792Z,67.60
2018-06-21T11:17:47.749Z,66.50
2018-06-21T11:18:47.762Z,66.20
2018-06-21T11:19:47.723Z,67.30
2018-06-21T11:20:47.711Z,66.80
2018-06-21T11:21:47.699Z,66.71
2018-06-21T11:22:47.698Z,67.30
2018-06-21T11:23:47.680Z,67.70
2018-06-21T11:24:47.699Z,67.10
2018-06-21T11:25:47.661Z,67.10
2018-06-21T11:26:47.643Z,68.20
2018-06-21T11:27:47.668Z,67.60
2018-06-21T11:28:47.627Z,67.00
2018-06-21T11:29:47.610Z,67.50
2018-06-21T11:30:47.634Z,67.10
2018-06-21T11:31:47.594Z,68.00
2018-06-21T11:32:47.578Z,67.30
2018-06-21T11:33:47.565Z,67.60
2018-06-21T11:34:47.559Z,67.40
2018-06-21T11:35:47.547Z,68.20
2018-06-21T11:36:47.556Z,67.80
2018-06-21T11:37:47.526Z,67.60
2018-06-21T11:38:47.508Z,67.30
2018-06-21T11:39:47.499Z,67.80
2018-06-21T11:40:47.487Z,67.20
2018-06-21T11:41:47.493Z,68.10
2018-06-21T11:42:47.468Z,67.80
2018-06-21T11:43:47.454Z,67.60
2018-06-21T11:44:47.443Z,67.70
2018-06-21T11:45:47.452Z,68.00
2018-06-21T11:46:47.529Z,68.10
2018-06-21T11:47:47.408Z,67.83
2018-06-21T11:48:47.398Z,67.80
2018-06-21T11:49:47.389Z,68.00
2018-06-21T11:50:47.394Z,67.70
2018-06-21T11:51:47.388Z,67.60
2018-06-21T11:52:47.349Z,67.63
2018-06-21T11:53:47.337Z,68.00
2018-06-21T11:54:47.333Z,68.10
2018-06-21T11:55:47.323Z,68.20
2018-06-21T11:56:47.307Z,68.20
2018-06-21T11:57:47.316Z,68.70
2018-06-21T11:58:47.909Z,68.40
2018-06-21T11:59:47.270Z,68.60
2018-06-21T12:00:47.262Z,68.00
2018-06-21T12:01:47.262Z,68.50
2018-06-21T12:02:47.262Z,68.10
2018-06-21T12:03:47.228Z,68.10
2018-06-21T12:04:47.214Z,68.60
2018-06-21T12:05:47.203Z,68.30
2018-06-21T12:06:47.196Z,68.60
2018-06-21T12:07:47.214Z,68.50
2018-06-21T12:08:47.216Z,68.20
2018-06-21T12:09:47.160Z,68.23
2018-06-21T12:10:47.143Z,68.10
2018-06-21T12:11:47.133Z,68.23
2018-06-21T12:12:47.126Z,68.30
2018-06-21T12:13:47.138Z,68.63
2018-06-21T12:14:47.104Z,68.79
2018-06-21T12:15:47.090Z,67.60
2018-06-21T12:16:47.080Z,68.50
2018-06-21T12:17:47.102Z,68.10
2018-06-21T12:18:47.053Z,68.60
2018-06-21T12:19:47.047Z,68.40
2018-06-21T12:20:47.051Z,68.30
2018-06-21T12:21:47.025Z,68.20
2018-06-21T12:22:47.008Z,67.90
2018-06-21T12:23:47.021Z,68.30
2018-06-21T12:24:46.986Z,68.50
2018-06-21T12:25:46.974Z,68.63
2018-06-21T12:26:46.970Z,69.49
2018-06-21T12:27:46.956Z,68.53
2018-06-21T12:28:46.962Z,68.70
2018-06-21T12:29:46.936Z,68.43
2018-06-21T12:30:46.919Z,68.53
2018-06-21T12:31:46.906Z,68.30
2018-06-21T12:32:46.897Z,68.03
2018-06-21T12:33:46.906Z,68.20
2018-06-21T12:34:46.885Z,68.79
2018-06-21T12:35:46.863Z,68.43
2018-06-21T12:36:46.850Z,68.50
2018-06-21T12:37:46.836Z,69.59
2018-06-21T12:38:46.850Z,68.43
2018-06-21T12:39:46.819Z,68.10
2018-06-21T12:40:46.808Z,68.53
2018-06-21T12:41:46.798Z,68.83
2018-06-21T12:42:46.781Z,68.50
2018-06-21T12:43:46.793Z,68.63
2018-06-21T12:44:46.760Z,68.20
2018-06-21T12:45:46.749Z,68.60
2018-06-21T12:46:46.743Z,68.30
2018-06-21T12:47:46.731Z,68.40
2018-06-21T12:48:46.738Z,69.62
2018-06-21T12:49:46.712Z,69.79
2018-06-21T12:50:46.691Z,69.49
2018-06-21T12:51:46.683Z,69.79
2018-06-21T12:52:46.672Z,69.49